KCFV/CFV METAR and TAF weather

Enter ICAO airport designator
Station Type Date Time Source
KCFV METAR 2018/10/16 20:52 UTC NOAA

KCFV 162052Z AUTO 36004KT 10SM CLR 17/00 A3024 RMK AO2 SLP242 T01720000 56022


Station Type Date Time Source
KCFV Decoded METAR 2018/10/16 20:52 UTC NOAA

COFFEYVILLE MUNICIPAL AIRPORT , KS, United States (KCFV) 37-05N 95-34W 225M
Oct 16, 2018 - 04:52 PM EDT / 2018.10.16 2052 UTC
Wind: from the N (360 degrees) at 5 MPH (4 KT):0
Visibility: 10 mile(s):0
Sky conditions: clear
Temperature: 63.0 F (17.2 C)
Dew Point: 32.0 F (0.0 C)
Relative Humidity: 31%
Pressure (altimeter): 30.24 in. Hg (1024 hPa)
Pressure tendency: 0.06 inches (2.2 hPa) lower than three hours ago
ob: KCFV 162052Z AUTO 36004KT 10SM CLR 17/00 A3024 RMK AO2 SLP242 T01720000 56022
cycle: 21

Station Type Date Time Source
KCFV TAF UTC NOAA

Error!


Example: see airport list